createdAt,value
2022-10-11T00:01:48.720Z,21.37
2022-10-11T00:04:16.108Z,21.39
2022-10-11T00:06:43.249Z,21.39
2022-10-11T00:09:11.728Z,21.38
2022-10-11T00:11:39.107Z,21.38
2022-10-11T00:14:06.687Z,21.31
2022-10-11T00:16:34.627Z,21.26
2022-10-11T00:19:01.688Z,21.25
2022-10-11T00:21:28.806Z,21.28
2022-10-11T00:23:55.968Z,21.30
2022-10-11T00:26:24.466Z,21.26
2022-10-11T00:28:53.154Z,21.24
2022-10-11T00:31:20.687Z,21.24
2022-10-11T00:33:48.685Z,21.23
2022-10-11T00:36:16.487Z,21.22
2022-10-11T00:38:44.486Z,21.18
2022-10-11T00:41:12.525Z,21.18
2022-10-11T00:43:41.471Z,21.19
2022-10-11T00:46:35.567Z,21.23
2022-10-11T00:49:10.427Z,21.21
2022-10-11T00:51:47.226Z,21.17
2022-10-11T00:54:20.712Z,21.11
2022-10-11T00:56:54.310Z,21.08
2022-10-11T00:59:28.766Z,21.08
2022-10-11T01:01:56.545Z,21.10
2022-10-11T01:04:23.845Z,21.09
2022-10-11T01:06:53.344Z,21.06
2022-10-11T01:09:22.486Z,21.02
2022-10-11T01:11:56.206Z,20.97
2022-10-11T01:14:55.807Z,20.95
2022-10-11T01:17:35.846Z,20.94
2022-10-11T01:20:28.028Z,20.88
2022-10-11T01:23:27.186Z,20.91
2022-10-11T01:26:20.709Z,20.99
2022-10-11T01:29:00.987Z,21.00
2022-10-11T01:31:40.167Z,21.01
2022-10-11T01:34:17.238Z,21.08
2022-10-11T01:36:53.607Z,21.06
2022-10-11T01:39:29.206Z,21.01
2022-10-11T01:42:02.987Z,21.05
2022-10-11T01:44:32.848Z,21.09
2022-10-11T01:47:01.366Z,21.06
2022-10-11T01:49:28.528Z,21.03
2022-10-11T01:52:00.485Z,21.03
2022-10-11T01:55:08.624Z,21.05
2022-10-11T01:58:08.946Z,21.91
2022-10-11T02:00:49.765Z,22.04
2022-10-11T02:03:31.591Z,22.20
2022-10-11T02:06:08.966Z,22.21
2022-10-11T02:08:47.487Z,22.32
2022-10-11T02:11:22.527Z,22.48
2022-10-11T02:13:57.727Z,22.53
2022-10-11T02:16:34.506Z,22.65
2022-10-11T02:19:09.145Z,22.57
2022-10-11T02:21:43.592Z,22.55
2022-10-11T02:24:17.099Z,22.65
2022-10-11T02:26:50.406Z,22.65
2022-10-11T02:29:19.946Z,22.70
2022-10-11T02:31:50.427Z,22.61
2022-10-11T02:34:24.845Z,22.63
2022-10-11T02:37:04.267Z,22.69
2022-10-11T02:39:39.270Z,22.65
2022-10-11T02:42:14.270Z,22.64
2022-10-11T02:44:46.606Z,22.62
2022-10-11T02:47:15.326Z,22.68
2022-10-11T02:49:43.766Z,22.62
2022-10-11T02:52:10.804Z,22.57
2022-10-11T02:54:37.866Z,22.53
2022-10-11T02:57:04.846Z,22.59
2022-10-11T02:59:31.886Z,22.77
2022-10-11T03:01:59.824Z,22.65
2022-10-11T03:04:27.125Z,22.68
2022-10-11T03:06:55.666Z,22.63
2022-10-11T03:09:22.645Z,22.64
2022-10-11T03:11:49.767Z,22.67
2022-10-11T03:14:16.898Z,22.54
2022-10-11T03:16:43.886Z,22.59
2022-10-11T03:19:12.281Z,22.56
2022-10-11T03:21:40.786Z,22.54
2022-10-11T03:24:09.447Z,22.48
2022-10-11T03:26:36.526Z,22.53
2022-10-11T03:29:03.586Z,22.50
2022-10-11T03:31:30.645Z,22.44
2022-10-11T03:33:57.726Z,22.44
2022-10-11T03:36:24.766Z,22.41
2022-10-11T03:38:51.830Z,22.41
2022-10-11T03:41:20.408Z,22.34
2022-10-11T03:43:47.485Z,22.38
2022-10-11T03:46:14.690Z,22.28
2022-10-11T03:48:41.729Z,22.31
2022-10-11T03:51:08.906Z,22.32
2022-10-11T03:53:35.906Z,22.35
2022-10-11T03:56:07.490Z,22.30
2022-10-11T03:58:37.148Z,22.17
2022-10-11T04:01:04.205Z,22.28
2022-10-11T04:03:31.310Z,22.20
2022-10-11T04:05:58.367Z,22.21
2022-10-11T04:08:25.487Z,22.16
2022-10-11T04:10:52.567Z,22.20
2022-10-11T04:13:19.628Z,22.23
2022-10-11T04:15:48.166Z,22.27
2022-10-11T04:18:15.306Z,22.29
2022-10-11T04:20:42.307Z,22.22
2022-10-11T04:23:09.346Z,22.33
2022-10-11T04:25:38.405Z,22.26
2022-10-11T04:28:05.825Z,22.26
2022-10-11T04:30:32.886Z,22.29
2022-10-11T04:33:01.386Z,22.19
2022-10-11T04:35:28.425Z,22.17
2022-10-11T04:37:55.725Z,22.10
2022-10-11T04:40:22.824Z,22.10
2022-10-11T04:42:49.828Z,22.16
2022-10-11T04:45:17.144Z,22.16
2022-10-11T04:47:44.186Z,22.19
2022-10-11T04:50:12.667Z,22.19
2022-10-11T04:52:39.706Z,22.21
2022-10-11T04:55:07.405Z,22.21
2022-10-11T04:57:34.426Z,22.12
2022-10-11T05:00:01.465Z,22.07
2022-10-11T05:02:28.513Z,22.03
2022-10-11T05:04:55.705Z,22.02
2022-10-11T05:07:24.326Z,21.94
2022-10-11T05:09:51.388Z,21.99
2022-10-11T05:12:18.409Z,21.91
2022-10-11T05:14:45.548Z,21.99
2022-10-11T05:17:12.708Z,21.84
2022-10-11T05:19:39.847Z,21.80
2022-10-11T05:22:06.906Z,21.92
2022-10-11T05:24:35.425Z,21.92
2022-10-11T05:27:03.581Z,21.87
2022-10-11T05:29:31.149Z,21.81
2022-10-11T05:31:58.187Z,21.83
2022-10-11T05:34:25.227Z,21.83
2022-10-11T05:36:52.269Z,21.97
2022-10-11T05:39:19.366Z,22.34
2022-10-11T05:41:47.867Z,22.42
2022-10-11T05:44:14.906Z,22.34
2022-10-11T05:46:41.967Z,22.29
2022-10-11T05:49:09.000Z,22.09
2022-10-11T05:51:36.049Z,21.99
2022-10-11T05:54:03.107Z,21.87
2022-10-11T05:56:30.187Z,21.85
2022-10-11T05:59:02.244Z,21.74
2022-10-11T06:01:29.881Z,21.81
2022-10-11T06:03:57.108Z,21.73
2022-10-11T06:06:24.447Z,21.87
2022-10-11T06:08:51.487Z,21.78
2022-10-11T06:11:22.207Z,21.79
2022-10-11T06:13:49.326Z,22.05
2022-10-11T06:16:17.867Z,22.35
2022-10-11T06:18:44.971Z,22.53
2022-10-11T06:21:12.688Z,22.65
2022-10-11T06:23:39.808Z,22.88
2022-10-11T06:26:09.345Z,22.97
2022-10-11T06:28:37.475Z,23.11
2022-10-11T06:31:06.385Z,23.16
2022-10-11T06:33:35.021Z,23.36
2022-10-11T06:36:06.507Z,23.65
2022-10-11T06:38:34.027Z,23.25
2022-10-11T06:41:10.326Z,23.09
2022-10-11T06:43:37.367Z,22.95
2022-10-11T06:46:04.718Z,22.92
2022-10-11T06:48:32.027Z,22.88
2022-10-11T06:51:01.196Z,22.83
2022-10-11T06:53:28.426Z,22.95
2022-10-11T06:56:02.360Z,22.94
2022-10-11T06:58:29.869Z,22.82
2022-10-11T07:01:00.814Z,22.79
2022-10-11T07:03:29.147Z,22.83
2022-10-11T07:06:02.878Z,22.91
2022-10-11T07:08:30.550Z,23.15
2022-10-11T07:11:00.348Z,23.48
2022-10-11T07:13:27.426Z,23.75
2022-10-11T07:15:54.526Z,23.82
2022-10-11T07:18:21.591Z,23.93
2022-10-11T07:20:48.835Z,23.99
2022-10-11T07:23:17.608Z,24.16
2022-10-11T07:25:45.138Z,24.37
2022-10-11T07:28:12.602Z,24.62
2022-10-11T07:30:41.247Z,24.81
2022-10-11T07:33:08.447Z,24.97
2022-10-11T07:35:36.788Z,25.20
2022-10-11T07:38:05.332Z,25.23
2022-10-11T07:40:40.608Z,25.29
2022-10-11T07:43:07.648Z,25.26
2022-10-11T07:45:36.728Z,25.40
2022-10-11T07:48:04.197Z,25.66
2022-10-11T07:50:31.807Z,25.78
2022-10-11T07:52:58.906Z,25.95
2022-10-11T07:55:25.966Z,25.98
2022-10-11T07:57:54.651Z,26.14
2022-10-11T08:00:22.307Z,26.18
2022-10-11T08:02:49.411Z,26.30
2022-10-11T08:05:16.687Z,26.27
2022-10-11T08:07:43.708Z,26.18
2022-10-11T08:10:11.259Z,26.29
2022-10-11T08:12:38.369Z,26.40
2022-10-11T08:15:08.106Z,26.38
2022-10-11T08:17:35.147Z,26.45
2022-10-11T08:20:02.188Z,26.41
2022-10-11T08:22:29.248Z,26.47
2022-10-11T08:24:56.289Z,26.66
2022-10-11T08:27:23.466Z,26.82
2022-10-11T08:29:50.793Z,26.92
2022-10-11T08:32:19.372Z,27.07
2022-10-11T08:34:46.530Z,27.14
2022-10-11T08:37:13.586Z,27.21
2022-10-11T08:39:40.585Z,27.25
2022-10-11T08:42:17.198Z,27.28
2022-10-11T08:45:10.007Z,27.33
2022-10-11T08:47:44.447Z,27.45
2022-10-11T08:50:20.173Z,27.39
2022-10-11T08:52:53.914Z,27.63
2022-10-11T08:55:28.834Z,27.69
2022-10-11T08:57:58.528Z,27.77
2022-10-11T09:00:32.950Z,27.91
2022-10-11T09:03:09.213Z,28.02
2022-10-11T09:05:53.667Z,27.98
2022-10-11T09:08:33.227Z,27.93
2022-10-11T09:11:10.506Z,27.72
2022-10-11T09:14:07.026Z,27.80
2022-10-11T09:16:47.828Z,27.72
2022-10-11T09:19:37.466Z,27.73
2022-10-11T09:22:16.946Z,27.49
2022-10-11T09:25:04.949Z,27.79
2022-10-11T09:28:01.349Z,27.80
2022-10-11T09:30:25.485Z,27.81
2022-10-11T09:33:10.527Z,27.54
2022-10-11T09:35:42.968Z,27.75
2022-10-11T09:38:24.658Z,27.75
2022-10-11T09:41:04.167Z,27.75
2022-10-11T09:43:31.605Z,27.69
2022-10-11T09:45:58.707Z,27.84
2022-10-11T09:48:30.686Z,27.90
2022-10-11T09:51:06.495Z,27.72
2022-10-11T09:53:58.128Z,27.64
2022-10-11T09:56:28.028Z,27.67
2022-10-11T09:59:27.686Z,27.73
2022-10-11T10:02:20.212Z,27.52
2022-10-11T10:05:16.267Z,27.65
2022-10-11T10:08:05.342Z,27.60
2022-10-11T10:10:37.251Z,27.87
2022-10-11T10:13:18.279Z,27.86
2022-10-11T10:15:48.360Z,27.77
2022-10-11T10:18:23.446Z,28.01
2022-10-11T10:20:56.448Z,27.88
2022-10-11T10:23:29.106Z,27.94
2022-10-11T10:26:12.268Z,27.54
2022-10-11T10:28:39.889Z,27.64
2022-10-11T10:31:22.586Z,27.76
2022-10-11T10:33:54.766Z,28.03
2022-10-11T10:36:29.328Z,28.10
2022-10-11T10:39:08.188Z,27.92
2022-10-11T10:41:35.330Z,27.96
2022-10-11T10:44:03.487Z,27.95
2022-10-11T10:46:47.885Z,27.97
2022-10-11T10:52:49.329Z,27.78
2022-10-11T10:55:25.948Z,27.63
2022-10-11T10:58:16.341Z,27.84
2022-10-11T11:00:49.237Z,28.17
2022-10-11T11:03:24.662Z,28.21
2022-10-11T11:06:01.910Z,28.27
2022-10-11T11:08:45.608Z,28.14
2022-10-11T11:11:30.908Z,28.03
2022-10-11T11:14:09.729Z,27.57
2022-10-11T11:16:48.827Z,27.86
2022-10-11T11:19:35.646Z,27.97
2022-10-11T11:22:15.270Z,27.82
2022-10-11T11:24:57.004Z,27.40
2022-10-11T11:27:42.607Z,27.25
2022-10-11T11:30:16.628Z,27.21
2022-10-11T11:32:56.430Z,27.04
2022-10-11T11:35:31.168Z,27.04
2022-10-11T11:38:06.554Z,26.84
2022-10-11T11:40:39.687Z,26.92
2022-10-11T11:43:22.208Z,26.80
2022-10-11T11:45:55.307Z,26.59
2022-10-11T11:48:26.229Z,26.92
2022-10-11T11:51:02.835Z,26.73
2022-10-11T11:53:51.212Z,26.76
2022-10-11T11:56:30.152Z,26.84
2022-10-11T11:59:10.221Z,26.87
2022-10-11T12:01:44.890Z,26.84
2022-10-11T12:04:22.307Z,27.06
2022-10-11T12:07:15.836Z,27.10
2022-10-11T12:09:47.627Z,27.05
2022-10-11T12:12:29.310Z,26.93
2022-10-11T12:15:17.034Z,26.88
2022-10-11T12:18:04.267Z,26.80
2022-10-11T12:20:34.089Z,26.79
2022-10-11T12:23:01.688Z,26.67
2022-10-11T12:25:40.766Z,26.68
2022-10-11T12:28:45.862Z,26.67
2022-10-11T12:31:22.550Z,26.64
2022-10-11T12:33:54.115Z,26.62
2022-10-11T12:36:37.308Z,26.66
2022-10-11T12:39:37.355Z,26.62
2022-10-11T12:42:18.365Z,26.52
2022-10-11T12:45:29.130Z,26.54
2022-10-11T12:48:10.767Z,26.49
2022-10-11T12:50:52.226Z,26.49
2022-10-11T12:53:37.427Z,26.41
2022-10-11T12:56:14.847Z,26.49
2022-10-11T12:58:48.269Z,26.53
2022-10-11T13:01:22.149Z,26.52
2022-10-11T13:04:00.449Z,26.50
2022-10-11T13:06:32.512Z,26.46
2022-10-11T13:09:05.271Z,26.47
2022-10-11T13:11:37.087Z,26.41
2022-10-11T13:14:10.487Z,26.42
2022-10-11T13:17:04.850Z,26.41
2022-10-11T13:19:36.873Z,26.40
2022-10-11T13:22:15.267Z,26.33
2022-10-11T13:24:42.464Z,26.34
2022-10-11T13:27:19.328Z,26.32
2022-10-11T13:29:48.670Z,26.27
2022-10-11T13:32:21.708Z,26.24
2022-10-11T13:37:26.781Z,26.13
2022-10-11T13:39:56.446Z,26.07
2022-10-11T13:42:29.741Z,26.16
2022-10-11T13:44:58.382Z,26.16
2022-10-11T13:47:29.334Z,26.20
2022-10-11T13:50:10.546Z,26.22
2022-10-11T13:52:53.502Z,26.22
2022-10-11T13:55:27.494Z,26.19
2022-10-11T13:57:55.644Z,26.22
2022-10-11T14:00:27.322Z,26.16
2022-10-11T14:02:59.821Z,26.20
2022-10-11T14:05:35.489Z,26.22
2022-10-11T14:08:05.930Z,26.27
2022-10-11T14:10:34.327Z,26.25
2022-10-11T14:13:05.414Z,26.23
2022-10-11T14:15:35.287Z,26.22
2022-10-11T14:18:23.386Z,26.15
2022-10-11T14:20:51.942Z,26.13
2022-10-11T14:23:18.995Z,26.13
2022-10-11T14:25:46.068Z,26.09
2022-10-11T14:28:13.830Z,26.07
2022-10-11T14:30:41.742Z,26.02
2022-10-11T14:33:10.342Z,25.97
2022-10-11T14:35:37.591Z,25.95
2022-10-11T14:38:06.163Z,25.91
2022-10-11T14:40:33.566Z,25.89
2022-10-11T14:43:00.675Z,25.89
2022-10-11T14:45:27.905Z,25.91
2022-10-11T14:47:56.127Z,25.83
2022-10-11T14:50:38.506Z,25.77
2022-10-11T14:53:08.425Z,25.78
2022-10-11T14:55:36.743Z,25.77
2022-10-11T14:58:04.045Z,25.79
2022-10-11T15:00:31.848Z,25.77
2022-10-11T15:03:00.133Z,25.75
2022-10-11T15:05:34.009Z,25.76
2022-10-11T15:08:02.588Z,25.76
2022-10-11T15:10:36.507Z,25.80
2022-10-11T15:13:05.163Z,25.77
2022-10-11T15:15:32.706Z,25.75
2022-10-11T15:18:06.928Z,25.74
2022-10-11T15:20:37.307Z,25.80
2022-10-11T15:23:06.464Z,25.81
2022-10-11T15:25:35.503Z,25.83
2022-10-11T15:28:02.550Z,25.81
2022-10-11T15:30:33.955Z,26.19
2022-10-11T15:33:05.224Z,26.57
2022-10-11T15:35:32.264Z,26.85
2022-10-11T15:38:00.343Z,26.97
2022-10-11T15:40:32.132Z,27.10
2022-10-11T15:43:01.030Z,27.22
2022-10-11T15:45:29.003Z,27.25
2022-10-11T15:47:56.863Z,27.25
2022-10-11T15:50:26.003Z,27.37
2022-10-11T15:52:53.022Z,27.45
2022-10-11T15:55:20.063Z,27.37
2022-10-11T15:57:47.222Z,27.42
2022-10-11T16:00:21.992Z,27.37
2022-10-11T16:02:51.722Z,27.44
2022-10-11T16:05:19.602Z,27.49
2022-10-11T16:07:46.722Z,27.46
2022-10-11T16:10:14.521Z,27.47
2022-10-11T16:12:41.563Z,27.49
2022-10-11T16:15:10.224Z,27.52
2022-10-11T16:17:38.982Z,27.53
2022-10-11T16:20:08.062Z,27.53
2022-10-11T16:22:35.863Z,27.54
2022-10-11T16:25:04.383Z,27.54
2022-10-11T16:27:32.403Z,27.54
2022-10-11T16:30:00.863Z,27.51
2022-10-11T16:32:28.622Z,27.55
2022-10-11T16:34:57.162Z,27.53
2022-10-11T16:37:24.461Z,27.18
2022-10-11T16:39:51.523Z,26.78
2022-10-11T16:42:18.603Z,26.56
2022-10-11T16:44:45.621Z,26.48
2022-10-11T16:47:12.704Z,26.34
2022-10-11T16:49:39.882Z,26.06
2022-10-11T16:52:08.915Z,25.89
2022-10-11T16:54:35.986Z,25.73
2022-10-11T16:57:03.883Z,25.63
2022-10-11T16:59:30.961Z,25.52
2022-10-11T17:01:57.992Z,25.43
2022-10-11T17:04:25.083Z,25.34
2022-10-11T17:06:52.142Z,25.28
2022-10-11T17:09:20.703Z,25.25
2022-10-11T17:11:47.823Z,25.21
2022-10-11T17:14:14.862Z,25.15
2022-10-11T17:16:41.988Z,25.10
2022-10-11T17:19:10.724Z,25.06
2022-10-11T17:21:37.763Z,25.04
2022-10-11T17:24:06.047Z,24.96
2022-10-11T17:26:34.823Z,24.94
2022-10-11T17:29:02.206Z,24.91
2022-10-11T17:31:30.362Z,24.88
2022-10-11T17:33:59.705Z,24.84
2022-10-11T17:36:29.702Z,24.80
2022-10-11T17:38:57.657Z,24.77
2022-10-11T17:41:29.412Z,24.73
2022-10-11T17:44:00.622Z,24.72
2022-10-11T17:46:28.752Z,24.69
2022-10-11T17:48:56.285Z,24.66
2022-10-11T17:51:23.421Z,24.61
2022-10-11T17:53:51.790Z,24.61
2022-10-11T17:56:26.769Z,24.57
2022-10-11T17:58:56.983Z,24.58
2022-10-11T18:01:28.410Z,24.55
2022-10-11T18:03:57.643Z,24.54
2022-10-11T18:06:26.603Z,24.56
2022-10-11T18:08:53.683Z,24.57
2022-10-11T18:11:22.320Z,24.55
2022-10-11T18:13:52.925Z,24.57
2022-10-11T18:16:23.584Z,24.55
2022-10-11T18:18:52.163Z,24.54
2022-10-11T18:21:19.464Z,24.52
2022-10-11T18:23:47.084Z,24.50
2022-10-11T18:26:16.922Z,24.55
2022-10-11T18:28:45.253Z,24.49
2022-10-11T18:31:15.614Z,24.43
2022-10-11T18:33:44.083Z,24.40
2022-10-11T18:36:14.081Z,24.32
2022-10-11T18:38:43.363Z,24.27
2022-10-11T18:41:11.322Z,24.22
2022-10-11T18:43:38.421Z,24.17
2022-10-11T18:46:08.423Z,24.12
2022-10-11T18:48:43.564Z,24.08
2022-10-11T18:51:15.263Z,24.05
2022-10-11T18:53:42.923Z,24.02
2022-10-11T18:56:12.074Z,23.99
2022-10-11T18:58:40.862Z,24.01
2022-10-11T19:01:10.599Z,24.01
2022-10-11T19:03:38.746Z,24.02
2022-10-11T19:06:11.223Z,24.00
2022-10-11T19:08:39.782Z,23.98
2022-10-11T19:11:07.823Z,23.95
2022-10-11T19:13:35.682Z,23.94
2022-10-11T19:16:08.122Z,23.87
2022-10-11T19:18:37.489Z,23.90
2022-10-11T19:21:10.163Z,23.92
2022-10-11T19:23:40.964Z,23.96
2022-10-11T19:26:12.783Z,23.97
2022-10-11T19:28:40.002Z,23.98
2022-10-11T19:31:10.240Z,24.05
2022-10-11T19:33:39.242Z,24.02
2022-10-11T19:36:06.943Z,24.02
2022-10-11T19:38:35.343Z,24.01
2022-10-11T19:41:05.417Z,24.02
2022-10-11T19:43:32.529Z,23.98
2022-10-11T19:46:00.624Z,23.98
2022-10-11T19:48:27.845Z,23.98
2022-10-11T19:51:02.301Z,23.97
2022-10-11T19:53:30.622Z,23.92
2022-10-11T19:56:00.664Z,23.87
2022-10-11T19:58:29.762Z,23.91
2022-10-11T20:01:02.297Z,23.91
2022-10-11T20:03:29.743Z,23.92
2022-10-11T20:05:59.822Z,23.88
2022-10-11T20:08:26.984Z,23.85
2022-10-11T20:10:54.481Z,23.87
2022-10-11T20:13:21.564Z,23.87
2022-10-11T20:15:50.095Z,23.85
2022-10-11T20:18:17.165Z,23.94
2022-10-11T20:20:52.043Z,24.01
2022-10-11T20:23:23.666Z,24.00
2022-10-11T20:25:58.602Z,24.02
2022-10-11T20:28:26.827Z,24.00
2022-10-11T20:30:55.482Z,23.99
2022-10-11T20:33:22.704Z,23.98
2022-10-11T20:36:00.624Z,23.96
2022-10-11T20:38:29.742Z,23.94
2022-10-11T20:40:57.241Z,23.94
2022-10-11T20:43:25.082Z,23.92
2022-10-11T20:46:02.503Z,23.90
2022-10-11T20:48:30.744Z,23.85
2022-10-11T20:50:58.662Z,23.82
2022-10-11T20:53:27.023Z,23.79
2022-10-11T20:55:55.102Z,23.75
2022-10-11T20:58:24.905Z,23.76
2022-10-11T21:00:52.043Z,23.73
2022-10-11T21:03:20.583Z,23.70
2022-10-11T21:05:47.624Z,23.68
2022-10-11T21:08:14.702Z,23.67
2022-10-11T21:10:51.527Z,23.66
2022-10-11T21:13:18.944Z,23.68
2022-10-11T21:15:46.682Z,23.65
2022-10-11T21:18:14.593Z,23.72
2022-10-11T21:20:44.541Z,23.74
2022-10-11T21:23:14.503Z,23.75
2022-10-11T21:25:41.561Z,23.73
2022-10-11T21:28:09.217Z,23.71
2022-10-11T21:30:36.443Z,23.64
2022-10-11T21:33:03.524Z,23.62
2022-10-11T21:35:31.442Z,23.60
2022-10-11T21:38:00.159Z,23.56
2022-10-11T21:40:27.383Z,23.62
2022-10-11T21:42:54.641Z,23.60
2022-10-11T21:45:21.641Z,23.59
2022-10-11T21:47:48.802Z,23.62
2022-10-11T21:50:16.022Z,23.62
2022-10-11T21:52:43.041Z,23.57
2022-10-11T21:55:11.624Z,23.32
2022-10-11T21:57:38.700Z,23.41
2022-10-11T22:00:07.761Z,23.41
2022-10-11T22:02:34.970Z,23.38
2022-10-11T22:05:02.283Z,23.35
2022-10-11T22:07:29.360Z,23.32
2022-10-11T22:09:56.481Z,23.31
2022-10-11T22:12:25.003Z,23.29
2022-10-11T22:14:52.083Z,23.24
2022-10-11T22:17:19.162Z,23.20
2022-10-11T22:19:46.200Z,23.18
2022-10-11T22:22:13.262Z,23.11
2022-10-11T22:24:40.321Z,23.11
2022-10-11T22:27:07.683Z,23.10
2022-10-11T22:29:36.200Z,23.09
2022-10-11T22:32:03.262Z,23.04
2022-10-11T22:34:31.322Z,23.01
2022-10-11T22:36:58.421Z,22.98
2022-10-11T22:39:25.662Z,22.97
2022-10-11T22:41:53.642Z,22.96
2022-10-11T22:44:20.803Z,22.93
2022-10-11T22:46:49.265Z,22.92
2022-10-11T22:49:16.341Z,22.91
2022-10-11T22:51:43.382Z,22.91
2022-10-11T22:54:11.445Z,22.87
2022-10-11T22:56:38.587Z,22.84
2022-10-11T22:59:05.724Z,22.84
2022-10-11T23:01:33.122Z,22.84
2022-10-11T23:04:01.779Z,22.99
2022-10-11T23:06:28.855Z,22.97
2022-10-11T23:08:56.206Z,22.95
2022-10-11T23:11:23.323Z,22.96
2022-10-11T23:13:50.375Z,22.93
2022-10-11T23:16:17.442Z,22.91
2022-10-11T23:18:44.496Z,22.92
2022-10-11T23:21:13.041Z,22.93
2022-10-11T23:23:40.202Z,22.91
2022-10-11T23:26:11.302Z,22.95
2022-10-11T23:28:38.525Z,22.91
2022-10-11T23:31:11.142Z,22.89
2022-10-11T23:33:38.543Z,22.88
2022-10-11T23:36:06.741Z,22.85
2022-10-11T23:38:35.231Z,22.84
2022-10-11T23:41:02.263Z,22.81
2022-10-11T23:43:29.322Z,22.83
2022-10-11T23:45:56.362Z,22.82
2022-10-11T23:48:23.482Z,22.84
2022-10-11T23:50:50.621Z,22.85
2022-10-11T23:53:22.433Z,22.82
2022-10-11T23:55:51.380Z,22.83
2022-10-11T23:58:18.482Z,22.83
